createdAt,value
2017-09-16T00:00:46.269Z,9.48
2017-09-16T00:01:46.838Z,9.56
2017-09-16T00:02:47.407Z,9.47
2017-09-16T00:03:47.980Z,9.56
2017-09-16T00:04:48.541Z,9.59
2017-09-16T00:05:49.113Z,9.61
2017-09-16T00:06:49.679Z,9.56
2017-09-16T00:07:50.248Z,9.55
2017-09-16T00:08:50.830Z,9.46
2017-09-16T00:09:51.401Z,9.62
2017-09-16T00:10:51.970Z,9.58
2017-09-16T00:11:52.542Z,9.50
2017-09-16T00:12:53.110Z,9.51
2017-09-16T00:13:53.679Z,9.54
2017-09-16T00:14:54.249Z,9.51
2017-09-16T00:15:54.820Z,9.54
2017-09-16T00:16:55.387Z,9.50
2017-09-16T00:17:55.957Z,9.48
2017-09-16T00:18:56.525Z,9.46
2017-09-16T00:19:57.097Z,9.48
2017-09-16T00:20:57.666Z,9.40
2017-09-16T00:21:58.234Z,9.43
2017-09-16T00:22:58.803Z,9.48
2017-09-16T00:23:59.372Z,9.48
2017-09-16T00:24:59.940Z,9.58
2017-09-16T00:26:00.510Z,9.54
2017-09-16T00:27:01.079Z,9.50
2017-09-16T00:28:01.649Z,9.46
2017-09-16T00:29:02.218Z,9.51
2017-09-16T00:30:02.786Z,9.58
2017-09-16T00:31:03.355Z,9.51
2017-09-16T00:32:03.926Z,9.48
2017-09-16T00:33:04.495Z,9.51
2017-09-16T00:34:05.063Z,9.47
2017-09-16T00:35:05.631Z,9.54
2017-09-16T00:36:06.212Z,9.51
2017-09-16T00:37:06.782Z,9.47
2017-09-16T00:38:07.351Z,9.48
2017-09-16T00:39:07.922Z,9.47
2017-09-16T00:40:08.491Z,9.50
2017-09-16T00:41:09.061Z,9.41
2017-09-16T00:42:09.629Z,9.43
2017-09-16T00:43:10.209Z,9.43
2017-09-16T00:44:10.778Z,9.44
2017-09-16T00:45:11.347Z,9.44
2017-09-16T00:46:11.927Z,9.36
2017-09-16T00:47:12.495Z,9.36
2017-09-16T00:48:13.089Z,9.44
2017-09-16T00:49:13.636Z,9.50
2017-09-16T00:50:14.217Z,9.39
2017-09-16T00:51:14.789Z,9.44
2017-09-16T00:52:15.359Z,9.44
2017-09-16T00:53:15.937Z,9.43
2017-09-16T00:54:16.507Z,9.50
2017-09-16T00:55:17.075Z,9.46
2017-09-16T00:56:17.644Z,9.46
2017-09-16T00:57:18.214Z,9.48
2017-09-16T00:58:18.782Z,9.46
2017-09-16T00:59:19.351Z,9.43
2017-09-16T01:00:19.920Z,9.48
2017-09-16T01:01:20.489Z,9.39
2017-09-16T01:02:21.067Z,9.40
2017-09-16T01:03:21.638Z,9.34
2017-09-16T01:04:22.209Z,9.36
2017-09-16T01:05:22.791Z,9.44
2017-09-16T01:06:23.359Z,9.41
2017-09-16T01:07:23.930Z,9.50
2017-09-16T01:08:24.500Z,9.39
2017-09-16T01:09:25.071Z,9.41
2017-09-16T01:10:25.642Z,9.40
2017-09-16T01:11:26.213Z,9.39
2017-09-16T01:12:26.782Z,9.39
2017-09-16T01:13:27.353Z,9.36
2017-09-16T01:14:27.921Z,9.34
2017-09-16T01:15:28.493Z,9.34
2017-09-16T01:16:29.062Z,9.37
2017-09-16T01:17:29.633Z,9.37
2017-09-16T01:18:30.214Z,9.23
2017-09-16T01:19:30.786Z,9.26
2017-09-16T01:20:31.357Z,9.25
2017-09-16T01:21:31.926Z,9.26
2017-09-16T01:22:32.498Z,9.29
2017-09-16T01:23:33.080Z,9.26
2017-09-16T01:24:33.651Z,9.25
2017-09-16T01:25:34.222Z,9.25
2017-09-16T01:26:34.805Z,9.28
2017-09-16T01:27:35.374Z,9.23
2017-09-16T01:28:35.945Z,9.25
2017-09-16T01:29:36.516Z,9.23
2017-09-16T01:30:37.088Z,9.29
2017-09-16T01:31:37.670Z,9.26
2017-09-16T01:32:38.241Z,9.25
2017-09-16T01:33:38.822Z,9.39
2017-09-16T01:34:39.393Z,9.28
2017-09-16T01:35:39.961Z,9.28
2017-09-16T01:36:40.530Z,9.26
2017-09-16T01:37:41.099Z,9.23
2017-09-16T01:38:41.669Z,9.26
2017-09-16T01:39:42.250Z,9.25
2017-09-16T01:40:42.819Z,9.26
2017-09-16T01:41:43.389Z,9.25
2017-09-16T01:42:43.959Z,9.31
2017-09-16T01:43:44.529Z,9.37
2017-09-16T01:44:45.097Z,9.39
2017-09-16T01:45:45.666Z,9.39
2017-09-16T01:46:46.235Z,9.31
2017-09-16T01:47:46.818Z,9.34
2017-09-16T01:48:47.402Z,9.29
2017-09-16T01:49:47.982Z,9.23
2017-09-16T01:50:48.552Z,9.26
2017-09-16T01:51:49.122Z,9.36
2017-09-16T01:52:49.692Z,9.31
2017-09-16T01:53:50.274Z,9.29
2017-09-16T01:54:50.848Z,9.26
2017-09-16T01:55:51.415Z,9.25
2017-09-16T01:56:51.983Z,9.26
2017-09-16T01:57:52.554Z,9.22
2017-09-16T01:58:53.121Z,9.13
2017-09-16T01:59:53.692Z,9.28
2017-09-16T02:00:54.264Z,9.29
2017-09-16T02:01:54.833Z,9.19
2017-09-16T02:02:55.401Z,9.23
2017-09-16T02:03:55.971Z,9.22
2017-09-16T02:04:56.540Z,9.19
2017-09-16T02:05:57.110Z,9.23
2017-09-16T02:06:57.678Z,9.19
2017-09-16T02:07:58.260Z,9.16
2017-09-16T02:08:58.831Z,9.26
2017-09-16T02:09:59.401Z,9.22
2017-09-16T02:10:59.972Z,9.11
2017-09-16T02:12:00.555Z,9.21
2017-09-16T02:13:01.123Z,9.21
2017-09-16T02:14:01.704Z,9.21
2017-09-16T02:15:02.286Z,9.23
2017-09-16T02:16:02.855Z,9.19
2017-09-16T02:17:03.429Z,9.21
2017-09-16T02:18:03.996Z,9.23
2017-09-16T02:19:04.565Z,9.16
2017-09-16T02:20:05.134Z,9.26
2017-09-16T02:21:05.715Z,9.32
2017-09-16T02:22:06.287Z,9.25
2017-09-16T02:23:06.857Z,9.32
2017-09-16T02:24:07.427Z,9.29
2017-09-16T02:25:07.997Z,9.31
2017-09-16T02:26:08.565Z,9.23
2017-09-16T02:27:09.135Z,9.28
2017-09-16T02:28:09.706Z,9.26
2017-09-16T02:29:10.273Z,9.28
2017-09-16T02:30:10.844Z,9.25
2017-09-16T02:31:11.414Z,9.26
2017-09-16T02:32:11.982Z,9.22
2017-09-16T02:33:12.550Z,9.26
2017-09-16T02:34:13.118Z,9.18
2017-09-16T02:35:13.688Z,9.21
2017-09-16T02:36:14.256Z,9.19
2017-09-16T02:37:14.826Z,9.13
2017-09-16T02:38:15.394Z,9.13
2017-09-16T02:39:15.965Z,9.03
2017-09-16T02:40:16.547Z,9.06
2017-09-16T02:41:17.118Z,8.97
2017-09-16T02:42:17.694Z,9.08
2017-09-16T02:43:18.258Z,8.91
2017-09-16T02:44:18.825Z,8.97
2017-09-16T02:45:19.396Z,8.92
2017-09-16T02:46:19.964Z,8.95
2017-09-16T02:47:20.535Z,8.88
2017-09-16T02:48:21.103Z,8.88
2017-09-16T02:49:21.672Z,8.88
2017-09-16T02:50:22.243Z,8.85
2017-09-16T02:51:22.810Z,8.92
2017-09-16T02:52:23.380Z,8.95
2017-09-16T02:53:23.960Z,8.95
2017-09-16T02:54:24.531Z,8.94
2017-09-16T02:55:25.098Z,8.91
2017-09-16T02:56:25.668Z,8.87
2017-09-16T02:57:26.239Z,8.99
2017-09-16T02:58:26.810Z,8.94
2017-09-16T02:59:27.379Z,9.04
2017-09-16T03:00:27.950Z,9.11
2017-09-16T03:01:28.520Z,9.06
2017-09-16T03:02:29.088Z,9.02
2017-09-16T03:03:29.656Z,9.08
2017-09-16T03:04:30.237Z,9.08
2017-09-16T03:05:30.810Z,9.14
2017-09-16T03:06:31.390Z,9.04
2017-09-16T03:07:31.960Z,9.06
2017-09-16T03:08:32.531Z,9.04
2017-09-16T03:09:33.102Z,9.06
2017-09-16T03:10:33.672Z,9.06
2017-09-16T03:11:34.242Z,8.95
2017-09-16T03:12:34.812Z,8.99
2017-09-16T03:13:35.381Z,8.97
2017-09-16T03:14:35.962Z,8.99
2017-09-16T03:15:36.534Z,8.95
2017-09-16T03:16:37.103Z,8.94
2017-09-16T03:17:37.674Z,8.94
2017-09-16T03:18:38.244Z,8.95
2017-09-16T03:19:38.813Z,8.89
2017-09-16T03:20:39.383Z,8.97
2017-09-16T03:21:39.953Z,8.99
2017-09-16T03:22:40.523Z,8.97
2017-09-16T03:23:41.091Z,9.04
2017-09-16T03:24:41.659Z,9.04
2017-09-16T03:25:42.229Z,9.00
2017-09-16T03:26:42.809Z,8.97
2017-09-16T03:27:43.379Z,8.99
2017-09-16T03:28:43.951Z,9.08
2017-09-16T03:29:44.520Z,8.99
2017-09-16T03:30:45.093Z,9.03
2017-09-16T03:31:45.660Z,9.00
2017-09-16T03:32:46.230Z,9.06
2017-09-16T03:33:46.803Z,9.02
2017-09-16T03:34:47.368Z,9.08
2017-09-16T03:35:47.939Z,9.08
2017-09-16T03:36:48.508Z,9.08
2017-09-16T03:37:49.077Z,9.10
2017-09-16T03:38:49.648Z,9.16
2017-09-16T03:39:50.215Z,9.21
2017-09-16T03:40:50.785Z,9.11
2017-09-16T03:41:51.354Z,9.18
2017-09-16T03:42:51.924Z,9.19
2017-09-16T03:43:52.493Z,9.16
2017-09-16T03:44:53.062Z,9.16
2017-09-16T03:45:53.636Z,9.19
2017-09-16T03:46:54.206Z,9.21
2017-09-16T03:47:54.776Z,9.19
2017-09-16T03:48:55.347Z,9.29
2017-09-16T03:49:55.917Z,9.29
2017-09-16T03:50:56.490Z,9.22
2017-09-16T03:51:57.067Z,9.28
2017-09-16T03:52:57.638Z,9.25
2017-09-16T03:53:58.221Z,9.28
2017-09-16T03:54:58.790Z,9.28
2017-09-16T03:55:59.358Z,9.22
2017-09-16T03:56:59.928Z,9.26
2017-09-16T03:58:00.496Z,9.29
2017-09-16T03:59:01.066Z,9.34
2017-09-16T04:00:01.634Z,9.28
2017-09-16T04:01:02.203Z,9.25
2017-09-16T04:02:02.772Z,9.21
2017-09-16T04:03:03.341Z,9.29
2017-09-16T04:04:03.910Z,9.26
2017-09-16T04:05:04.482Z,9.36
2017-09-16T04:06:05.047Z,9.36
2017-09-16T04:07:05.620Z,9.25
2017-09-16T04:08:06.191Z,9.31
2017-09-16T04:09:06.761Z,9.29
2017-09-16T04:10:07.334Z,9.34
2017-09-16T04:11:07.911Z,9.29
2017-09-16T04:12:08.484Z,9.31
2017-09-16T04:13:09.057Z,9.37
2017-09-16T04:14:09.626Z,9.31
2017-09-16T04:15:10.199Z,9.29
2017-09-16T04:16:10.769Z,9.36
2017-09-16T04:17:11.341Z,9.36
2017-09-16T04:18:11.921Z,9.28
2017-09-16T04:19:12.491Z,9.36
2017-09-16T04:20:13.071Z,9.36
2017-09-16T04:21:13.642Z,9.44
2017-09-16T04:22:14.223Z,9.36
2017-09-16T04:23:14.794Z,9.39
2017-09-16T04:24:15.365Z,9.37
2017-09-16T04:25:15.935Z,9.36
2017-09-16T04:26:16.535Z,9.39
2017-09-16T04:27:17.072Z,9.50
2017-09-16T04:28:17.642Z,9.50
2017-09-16T04:29:18.212Z,9.40
2017-09-16T04:30:18.792Z,9.47
2017-09-16T04:31:19.361Z,9.41
2017-09-16T04:32:19.935Z,9.48
2017-09-16T04:33:20.505Z,9.51
2017-09-16T04:34:21.076Z,9.56
2017-09-16T04:35:21.644Z,9.48
2017-09-16T04:36:22.215Z,9.58
2017-09-16T04:37:22.784Z,9.48
2017-09-16T04:38:23.353Z,9.54
2017-09-16T04:39:23.924Z,9.50
2017-09-16T04:40:24.492Z,9.50
2017-09-16T04:41:25.062Z,9.56
2017-09-16T04:42:25.632Z,9.55
2017-09-16T04:43:26.200Z,9.51
2017-09-16T04:44:26.770Z,9.54
2017-09-16T04:45:27.340Z,9.54
2017-09-16T04:46:27.909Z,9.56
2017-09-16T04:47:28.491Z,9.58
2017-09-16T04:48:29.060Z,9.64
2017-09-16T04:49:29.633Z,9.61
2017-09-16T04:50:30.200Z,9.61
2017-09-16T04:51:30.770Z,9.61
2017-09-16T04:52:31.339Z,9.65
2017-09-16T04:53:31.908Z,9.62
2017-09-16T04:54:32.477Z,9.64
2017-09-16T04:55:33.047Z,9.65
2017-09-16T04:56:33.617Z,9.62
2017-09-16T04:57:34.198Z,9.68
2017-09-16T04:58:34.770Z,9.65
2017-09-16T04:59:35.338Z,9.68
2017-09-16T05:00:35.909Z,9.62
2017-09-16T05:01:36.479Z,9.68
2017-09-16T05:02:37.049Z,9.69
2017-09-16T05:03:37.620Z,9.69
2017-09-16T05:04:38.193Z,9.73
2017-09-16T05:05:38.760Z,9.79
2017-09-16T05:06:39.328Z,9.68
2017-09-16T05:07:39.899Z,9.74
2017-09-16T05:08:40.467Z,9.73
2017-09-16T05:09:41.036Z,9.74
2017-09-16T05:10:41.605Z,9.80
2017-09-16T05:11:42.176Z,9.74
2017-09-16T05:12:42.747Z,9.68
2017-09-16T05:13:43.317Z,9.74
2017-09-16T05:14:43.888Z,9.77
2017-09-16T05:15:44.462Z,9.73
2017-09-16T05:16:45.031Z,9.74
2017-09-16T05:17:45.602Z,9.74
2017-09-16T05:18:46.172Z,9.76
2017-09-16T05:19:46.745Z,9.73
2017-09-16T05:20:47.315Z,9.79
2017-09-16T05:21:47.885Z,9.76
2017-09-16T05:22:48.454Z,9.74
2017-09-16T05:23:49.026Z,9.77
2017-09-16T05:24:49.596Z,9.80
2017-09-16T05:25:50.168Z,9.77
2017-09-16T05:26:50.743Z,9.76
2017-09-16T05:27:51.313Z,9.74
2017-09-16T05:28:51.885Z,9.80
2017-09-16T05:29:52.454Z,9.82
2017-09-16T05:30:53.026Z,9.77
2017-09-16T05:31:53.596Z,9.80
2017-09-16T05:32:54.168Z,9.87
2017-09-16T05:33:54.739Z,9.84
2017-09-16T05:34:55.311Z,9.84
2017-09-16T05:35:55.884Z,9.87
2017-09-16T05:36:56.455Z,9.89
2017-09-16T05:37:57.028Z,9.95
2017-09-16T05:38:57.599Z,9.87
2017-09-16T05:39:58.183Z,9.94
2017-09-16T05:40:58.756Z,9.98
2017-09-16T05:41:59.327Z,9.91
2017-09-16T05:42:59.898Z,9.91
2017-09-16T05:44:00.468Z,9.95
2017-09-16T05:45:01.039Z,9.98
2017-09-16T05:46:01.609Z,9.97
2017-09-16T05:47:02.183Z,10.01
2017-09-16T05:48:02.765Z,10.05
2017-09-16T05:49:03.337Z,10.02
2017-09-16T05:50:03.910Z,10.01
2017-09-16T05:51:04.484Z,10.02
2017-09-16T05:52:05.056Z,10.02
2017-09-16T05:53:05.630Z,10.05
2017-09-16T05:54:06.214Z,9.98
2017-09-16T05:55:06.783Z,9.99
2017-09-16T05:56:07.357Z,10.04
2017-09-16T05:57:07.929Z,9.99
2017-09-16T05:58:08.499Z,10.07
2017-09-16T05:59:09.072Z,9.98
2017-09-16T06:00:09.655Z,10.02
2017-09-16T06:01:10.238Z,10.01
2017-09-16T06:02:10.812Z,10.01
2017-09-16T06:03:11.396Z,10.07
2017-09-16T06:04:11.971Z,10.10
2017-09-16T06:05:12.550Z,10.04
2017-09-16T06:06:13.116Z,10.16
2017-09-16T06:07:13.688Z,10.15
2017-09-16T06:08:14.263Z,10.02
2017-09-16T06:09:14.836Z,10.13
2017-09-16T06:10:15.420Z,10.13
2017-09-16T06:11:15.995Z,10.09
2017-09-16T06:12:16.568Z,10.10
2017-09-16T06:13:17.141Z,10.13
2017-09-16T06:14:17.714Z,10.09
2017-09-16T06:15:18.288Z,10.13
2017-09-16T06:16:18.862Z,10.13
2017-09-16T06:17:19.435Z,10.13
2017-09-16T06:18:20.008Z,10.10
2017-09-16T06:19:20.580Z,10.20
2017-09-16T06:20:21.154Z,10.13
2017-09-16T06:21:21.731Z,10.20
2017-09-16T06:22:22.314Z,10.15
2017-09-16T06:23:22.888Z,10.22
2017-09-16T06:24:23.463Z,10.13
2017-09-16T06:25:24.036Z,10.20
2017-09-16T06:26:24.622Z,10.25
2017-09-16T06:27:25.194Z,10.16
2017-09-16T06:28:25.766Z,10.13
2017-09-16T06:29:26.340Z,10.19
2017-09-16T06:30:26.924Z,10.20
2017-09-16T06:31:27.497Z,10.10
2017-09-16T06:32:28.070Z,10.07
2017-09-16T06:33:28.644Z,10.01
2017-09-16T06:34:29.217Z,10.07
2017-09-16T06:35:29.789Z,10.12
2017-09-16T06:36:30.364Z,10.04
2017-09-16T06:37:30.935Z,9.99
2017-09-16T06:38:31.510Z,10.04
2017-09-16T06:39:32.083Z,10.02
2017-09-16T06:40:32.658Z,10.02
2017-09-16T06:41:33.242Z,10.01
2017-09-16T06:42:33.813Z,10.09
2017-09-16T06:43:34.386Z,9.99
2017-09-16T06:44:34.958Z,9.94
2017-09-16T06:45:35.535Z,10.01
2017-09-16T06:46:36.110Z,10.05
2017-09-16T06:47:36.683Z,10.20
2017-09-16T06:48:37.257Z,10.13
2017-09-16T06:49:37.834Z,10.19
2017-09-16T06:50:38.408Z,10.25
2017-09-16T06:51:38.981Z,10.26
2017-09-16T06:52:39.567Z,10.37
2017-09-16T06:53:40.141Z,10.42
2017-09-16T06:54:40.714Z,10.54
2017-09-16T06:55:41.290Z,10.63
2017-09-16T06:56:41.864Z,10.61
2017-09-16T06:57:42.439Z,10.64
2017-09-16T06:58:43.012Z,10.61
2017-09-16T06:59:43.588Z,10.69
2017-09-16T07:00:44.164Z,10.75
2017-09-16T07:01:44.739Z,10.78
2017-09-16T07:02:45.313Z,10.87
2017-09-16T07:03:45.888Z,10.92
2017-09-16T07:04:46.464Z,11.05
2017-09-16T07:05:47.037Z,11.11
2017-09-16T07:06:47.611Z,11.18
2017-09-16T07:07:48.186Z,11.14
2017-09-16T07:08:48.763Z,11.14
2017-09-16T07:09:49.348Z,11.12
2017-09-16T07:10:49.921Z,11.35
2017-09-16T07:11:50.501Z,11.32
2017-09-16T07:12:51.071Z,11.29
2017-09-16T07:13:51.646Z,11.36
2017-09-16T07:14:52.228Z,11.36
2017-09-16T07:15:52.797Z,11.33
2017-09-16T07:16:53.373Z,11.57
2017-09-16T07:17:53.949Z,11.47
2017-09-16T07:18:54.524Z,11.55
2017-09-16T07:19:55.098Z,11.51
2017-09-16T07:20:55.675Z,11.59
2017-09-16T07:21:56.250Z,11.70
2017-09-16T07:22:56.826Z,11.72
2017-09-16T07:23:57.400Z,11.78
2017-09-16T07:24:57.977Z,11.86
2017-09-16T07:25:58.554Z,11.91
2017-09-16T07:26:59.140Z,11.65
2017-09-16T07:27:59.714Z,11.80
2017-09-16T07:29:00.289Z,11.88
2017-09-16T07:30:00.863Z,12.00
2017-09-16T07:31:01.439Z,11.86
2017-09-16T07:32:02.017Z,11.91
2017-09-16T07:33:02.591Z,12.00
2017-09-16T07:34:03.167Z,12.02
2017-09-16T07:35:03.743Z,11.95
2017-09-16T07:36:04.318Z,11.88
2017-09-16T07:37:04.894Z,11.91
2017-09-16T07:38:05.471Z,11.91
2017-09-16T07:39:06.046Z,11.91
2017-09-16T07:40:06.622Z,11.95
2017-09-16T07:41:07.199Z,11.95
2017-09-16T07:42:07.771Z,11.97
2017-09-16T07:43:08.359Z,11.97
2017-09-16T07:44:08.937Z,12.06
2017-09-16T07:45:09.510Z,12.07
2017-09-16T07:46:10.084Z,12.15
2017-09-16T07:47:10.658Z,12.10
2017-09-16T07:48:11.236Z,12.20
2017-09-16T07:49:11.812Z,12.29
2017-09-16T07:50:12.387Z,12.15
2017-09-16T07:51:12.962Z,12.12
2017-09-16T07:52:13.539Z,12.15
2017-09-16T07:53:14.114Z,12.02
2017-09-16T07:54:14.690Z,12.15
2017-09-16T07:55:15.264Z,11.97
2017-09-16T07:56:15.840Z,11.99
2017-09-16T07:57:16.417Z,11.86
2017-09-16T07:58:16.993Z,12.07
2017-09-16T07:59:17.568Z,12.10
2017-09-16T08:00:18.144Z,12.39
2017-09-16T08:01:18.732Z,12.35
2017-09-16T08:02:19.306Z,12.28
2017-09-16T08:03:19.885Z,12.27
2017-09-16T08:04:20.458Z,12.39
2017-09-16T08:05:21.046Z,12.29
2017-09-16T08:06:21.626Z,12.28
2017-09-16T08:07:22.209Z,12.36
2017-09-16T08:08:22.788Z,12.35
2017-09-16T08:09:23.360Z,12.42
2017-09-16T08:10:23.937Z,12.46
2017-09-16T08:11:24.511Z,12.54
2017-09-16T08:12:25.086Z,12.72
2017-09-16T08:13:25.662Z,12.75
2017-09-16T08:14:26.237Z,12.50
2017-09-16T08:15:26.814Z,12.55
2017-09-16T08:16:27.403Z,12.70
2017-09-16T08:17:27.979Z,12.67
2017-09-16T08:18:28.553Z,12.35
2017-09-16T08:19:29.133Z,12.28
2017-09-16T08:20:29.717Z,12.37
2017-09-16T08:21:30.292Z,12.24
2017-09-16T08:22:30.869Z,12.37
2017-09-16T08:23:31.458Z,12.46
2017-09-16T08:24:32.032Z,12.57
2017-09-16T08:25:32.609Z,12.54
2017-09-16T08:26:33.185Z,12.64
2017-09-16T08:27:33.762Z,12.60
2017-09-16T08:28:34.339Z,12.45
2017-09-16T08:29:34.915Z,12.37
2017-09-16T08:30:35.490Z,12.53
2017-09-16T08:31:36.068Z,12.67
2017-09-16T08:32:36.643Z,12.70
2017-09-16T08:33:37.218Z,12.82
2017-09-16T08:34:37.796Z,12.72
2017-09-16T08:35:38.371Z,12.90
2017-09-16T08:36:38.947Z,13.04
2017-09-16T08:37:39.521Z,13.16
2017-09-16T08:38:40.108Z,13.15
2017-09-16T08:39:40.685Z,13.37
2017-09-16T08:40:41.263Z,13.35
2017-09-16T08:41:41.839Z,13.31
2017-09-16T08:42:42.416Z,13.47
2017-09-16T08:43:42.991Z,13.49
2017-09-16T08:44:43.567Z,13.56
2017-09-16T08:45:44.145Z,13.70
2017-09-16T08:46:44.720Z,13.52
2017-09-16T08:47:45.297Z,13.54
2017-09-16T08:48:45.875Z,13.42
2017-09-16T08:49:46.449Z,13.44
2017-09-16T08:50:47.024Z,13.31
2017-09-16T08:51:47.612Z,13.09
2017-09-16T08:52:48.189Z,13.30
2017-09-16T08:53:48.764Z,13.13
2017-09-16T08:54:49.342Z,13.09
2017-09-16T08:55:49.919Z,13.30
2017-09-16T08:56:50.495Z,13.46
2017-09-16T08:57:51.072Z,13.30
2017-09-16T08:58:51.648Z,13.46
2017-09-16T08:59:52.225Z,13.42
2017-09-16T09:00:52.801Z,13.25
2017-09-16T09:01:53.381Z,13.28
2017-09-16T09:02:53.965Z,13.22
2017-09-16T09:03:54.539Z,13.23
2017-09-16T09:04:55.116Z,13.39
2017-09-16T09:05:55.694Z,13.50
2017-09-16T09:06:56.270Z,13.46
2017-09-16T09:07:56.847Z,13.62
2017-09-16T09:08:57.424Z,13.59
2017-09-16T09:09:58.000Z,13.70
2017-09-16T09:10:58.576Z,13.62
2017-09-16T09:11:59.151Z,13.89
2017-09-16T09:12:59.728Z,13.70
2017-09-16T09:14:00.307Z,13.77
2017-09-16T09:15:00.882Z,13.72
2017-09-16T09:16:01.457Z,13.81
2017-09-16T09:17:02.036Z,13.70
2017-09-16T09:18:02.626Z,13.74
2017-09-16T09:19:03.202Z,14.08
2017-09-16T09:20:03.778Z,14.10
2017-09-16T09:21:04.354Z,14.07
2017-09-16T09:22:04.931Z,13.70
2017-09-16T09:23:05.511Z,13.87
2017-09-16T09:24:06.086Z,13.89
2017-09-16T09:25:06.666Z,14.25
2017-09-16T09:26:07.239Z,14.22
2017-09-16T09:27:07.818Z,13.96
2017-09-16T09:28:08.396Z,14.00
2017-09-16T09:29:08.972Z,13.93
2017-09-16T09:30:09.548Z,13.99
2017-09-16T09:31:10.127Z,14.22
2017-09-16T09:32:10.704Z,14.15
2017-09-16T09:33:11.281Z,14.25
2017-09-16T09:34:11.860Z,14.14
2017-09-16T09:35:12.438Z,14.10
2017-09-16T09:36:13.025Z,14.11
2017-09-16T09:37:13.602Z,14.22
2017-09-16T09:38:14.181Z,14.30
2017-09-16T09:39:14.755Z,14.37
2017-09-16T09:40:15.333Z,14.11
2017-09-16T09:41:15.922Z,14.28
2017-09-16T09:42:16.500Z,14.14
2017-09-16T09:43:17.076Z,14.12
2017-09-16T09:44:17.653Z,14.04
2017-09-16T09:45:18.229Z,13.89
2017-09-16T09:46:18.818Z,13.81
2017-09-16T09:47:19.397Z,13.81
2017-09-16T09:48:19.974Z,13.95
2017-09-16T09:49:20.549Z,13.90
2017-09-16T09:50:21.127Z,13.89
2017-09-16T09:51:21.704Z,14.03
2017-09-16T09:52:22.282Z,13.95
2017-09-16T09:53:22.859Z,14.00
2017-09-16T09:54:23.437Z,14.07
2017-09-16T09:55:24.014Z,14.26
2017-09-16T09:56:24.591Z,14.11
2017-09-16T09:57:25.180Z,13.89
2017-09-16T09:58:25.756Z,13.96
2017-09-16T09:59:26.338Z,14.00
2017-09-16T10:00:26.917Z,14.15
2017-09-16T10:01:27.494Z,14.08
2017-09-16T10:02:28.070Z,14.08
2017-09-16T10:03:28.648Z,14.32
2017-09-16T10:04:29.227Z,14.54
2017-09-16T10:05:29.807Z,14.54
2017-09-16T10:06:30.391Z,15.02
2017-09-16T10:07:30.980Z,15.00
2017-09-16T10:08:31.558Z,15.07
2017-09-16T10:09:32.146Z,15.15
2017-09-16T10:10:32.722Z,15.06
2017-09-16T10:11:33.304Z,14.92
2017-09-16T10:12:33.874Z,15.03
2017-09-16T10:13:34.452Z,14.79
2017-09-16T10:14:35.033Z,14.73
2017-09-16T10:15:35.608Z,14.69
2017-09-16T10:16:36.188Z,14.58
2017-09-16T10:17:36.763Z,14.45
2017-09-16T10:18:37.341Z,14.44
2017-09-16T10:19:37.918Z,14.48
2017-09-16T10:20:38.498Z,14.53
2017-09-16T10:21:39.073Z,14.51
2017-09-16T10:22:39.651Z,14.58
2017-09-16T10:23:40.228Z,14.55
2017-09-16T10:24:40.806Z,14.72
2017-09-16T10:25:41.385Z,14.58
2017-09-16T10:26:41.976Z,14.51
2017-09-16T10:27:42.562Z,14.33
2017-09-16T10:28:43.140Z,14.48
2017-09-16T10:29:43.728Z,14.43
2017-09-16T10:30:44.315Z,14.50
2017-09-16T10:31:44.892Z,14.33
2017-09-16T10:32:45.481Z,14.29
2017-09-16T10:33:46.058Z,14.43
2017-09-16T10:34:46.637Z,14.30
2017-09-16T10:35:47.214Z,14.32
2017-09-16T10:36:47.803Z,14.29
2017-09-16T10:37:48.381Z,14.32
2017-09-16T10:38:48.957Z,14.43
2017-09-16T10:39:49.534Z,14.54
2017-09-16T10:40:50.114Z,14.51
2017-09-16T10:41:50.691Z,14.45
2017-09-16T10:42:51.267Z,14.48
2017-09-16T10:43:51.846Z,14.58
2017-09-16T10:44:52.433Z,14.66
2017-09-16T10:45:53.010Z,14.59
2017-09-16T10:46:53.595Z,14.54
2017-09-16T10:47:54.164Z,14.60
2017-09-16T10:48:54.740Z,14.55
2017-09-16T10:49:55.318Z,14.55
2017-09-16T10:50:55.896Z,14.58
2017-09-16T10:51:56.473Z,14.62
2017-09-16T10:52:57.048Z,14.63
2017-09-16T10:53:57.637Z,14.54
2017-09-16T10:54:58.226Z,14.62
2017-09-16T10:55:58.803Z,14.58
2017-09-16T10:56:59.380Z,14.41
2017-09-16T10:57:59.957Z,14.51
2017-09-16T10:59:00.538Z,14.41
2017-09-16T11:00:01.113Z,14.37
2017-09-16T11:01:01.690Z,14.43
2017-09-16T11:02:02.269Z,14.47
2017-09-16T11:03:02.857Z,14.48
2017-09-16T11:04:03.436Z,14.47
2017-09-16T11:05:04.014Z,14.30
2017-09-16T11:06:04.590Z,14.29
2017-09-16T11:07:05.167Z,14.37
2017-09-16T11:08:05.745Z,14.26
2017-09-16T11:09:06.321Z,14.23
2017-09-16T11:10:06.898Z,14.04
2017-09-16T11:11:07.474Z,13.97
2017-09-16T11:12:08.052Z,13.99
2017-09-16T11:13:08.630Z,13.96
2017-09-16T11:14:09.207Z,13.96
2017-09-16T11:15:09.783Z,13.83
2017-09-16T11:16:10.363Z,13.90
2017-09-16T11:17:10.941Z,13.90
2017-09-16T11:18:11.516Z,13.87
2017-09-16T11:19:12.094Z,13.99
2017-09-16T11:20:12.670Z,13.95
2017-09-16T11:21:13.247Z,13.90
2017-09-16T11:22:13.825Z,13.96
2017-09-16T11:23:14.402Z,14.03
2017-09-16T11:24:14.981Z,13.97
2017-09-16T11:25:15.556Z,14.00
2017-09-16T11:26:16.133Z,13.99
2017-09-16T11:27:16.724Z,14.08
2017-09-16T11:28:17.300Z,13.99
2017-09-16T11:29:17.889Z,13.99
2017-09-16T11:30:18.465Z,14.11
2017-09-16T11:31:19.044Z,14.03
2017-09-16T11:32:19.620Z,14.12
2017-09-16T11:33:20.197Z,14.17
2017-09-16T11:34:20.772Z,14.30
2017-09-16T11:35:21.350Z,14.30
2017-09-16T11:36:21.928Z,14.32
2017-09-16T11:37:22.504Z,14.30
2017-09-16T11:38:23.081Z,14.08
2017-09-16T11:39:23.663Z,14.12
2017-09-16T11:40:24.248Z,14.11
2017-09-16T11:41:24.825Z,14.23
2017-09-16T11:42:25.401Z,14.20
2017-09-16T11:43:25.979Z,14.25
2017-09-16T11:44:26.556Z,14.22
2017-09-16T11:45:27.135Z,14.30
2017-09-16T11:46:27.724Z,14.17
2017-09-16T11:47:28.301Z,14.32
2017-09-16T11:48:28.879Z,14.22
2017-09-16T11:49:29.456Z,14.37
2017-09-16T11:50:30.034Z,14.26
2017-09-16T11:51:30.612Z,14.36
2017-09-16T11:52:31.188Z,14.45
2017-09-16T11:53:31.765Z,14.45
2017-09-16T11:54:32.344Z,14.44
2017-09-16T11:55:32.923Z,14.45
2017-09-16T11:56:33.510Z,14.40
2017-09-16T11:57:34.089Z,14.53
2017-09-16T11:58:34.665Z,14.45
2017-09-16T11:59:35.243Z,14.54
2017-09-16T12:00:35.822Z,14.59
2017-09-16T12:01:36.399Z,14.70
2017-09-16T12:02:36.976Z,14.81
2017-09-16T12:03:37.552Z,14.65
2017-09-16T12:04:38.131Z,14.58
2017-09-16T12:05:38.709Z,14.47
2017-09-16T12:06:39.284Z,14.48
2017-09-16T12:07:39.862Z,14.60
2017-09-16T12:08:40.442Z,14.44
2017-09-16T12:09:41.019Z,14.47
2017-09-16T12:10:41.596Z,14.53
2017-09-16T12:11:42.172Z,14.65
2017-09-16T12:12:42.754Z,14.63
2017-09-16T12:13:43.329Z,14.47
2017-09-16T12:14:43.903Z,14.51
2017-09-16T12:15:44.481Z,14.50
2017-09-16T12:16:45.060Z,14.50
2017-09-16T12:17:45.635Z,14.50
2017-09-16T12:18:46.213Z,14.45
2017-09-16T12:19:46.789Z,14.41
2017-09-16T12:20:47.366Z,14.37
2017-09-16T12:21:47.945Z,14.26
2017-09-16T12:22:48.522Z,14.37
2017-09-16T12:23:49.098Z,14.32
2017-09-16T12:24:49.680Z,14.36
2017-09-16T12:25:50.254Z,14.30
2017-09-16T12:26:50.833Z,14.33
2017-09-16T12:27:51.409Z,14.47
2017-09-16T12:28:51.986Z,14.30
2017-09-16T12:29:52.565Z,14.30
2017-09-16T12:30:53.141Z,14.30
2017-09-16T12:31:53.717Z,14.30
2017-09-16T12:32:54.295Z,14.25
2017-09-16T12:33:54.872Z,14.28
2017-09-16T12:34:55.449Z,14.10
2017-09-16T12:35:56.024Z,14.30
2017-09-16T12:36:56.601Z,14.33
2017-09-16T12:37:57.188Z,14.32
2017-09-16T12:38:57.772Z,14.33
2017-09-16T12:39:58.347Z,14.30
2017-09-16T12:40:58.924Z,14.33
2017-09-16T12:41:59.501Z,14.28
2017-09-16T12:43:00.079Z,14.30
2017-09-16T12:44:00.659Z,14.35
2017-09-16T12:45:01.236Z,14.43
2017-09-16T12:46:01.814Z,14.47
2017-09-16T12:47:02.392Z,14.43
2017-09-16T12:48:02.969Z,14.51
2017-09-16T12:49:03.546Z,14.44
2017-09-16T12:50:04.125Z,14.51
2017-09-16T12:51:04.701Z,14.33
2017-09-16T12:52:05.278Z,14.41
2017-09-16T12:53:05.859Z,14.40
2017-09-16T12:54:06.433Z,14.51
2017-09-16T12:55:07.021Z,14.50
2017-09-16T12:56:07.599Z,14.50
2017-09-16T12:57:08.177Z,14.44
2017-09-16T12:58:08.753Z,14.54
2017-09-16T12:59:09.342Z,14.48
2017-09-16T13:00:09.918Z,14.44
2017-09-16T13:01:10.495Z,14.62
2017-09-16T13:02:11.075Z,14.51
2017-09-16T13:03:11.651Z,14.54
2017-09-16T13:04:12.226Z,14.58
2017-09-16T13:05:12.808Z,14.58
2017-09-16T13:06:13.381Z,14.62
2017-09-16T13:07:13.974Z,14.63
2017-09-16T13:08:14.557Z,14.72
2017-09-16T13:09:15.134Z,14.59
2017-09-16T13:10:15.712Z,14.58
2017-09-16T13:11:16.306Z,14.70